sensor_id;sensor_type;location;lat;lon;timestamp;P1;durP1;ratioP1;P2;durP2;ratioP2
39772;SDS011;25451;51.960;6.250;2022-08-14T00:02:09;6.27;;;4.43;;
39772;SDS011;25451;51.960;6.250;2022-08-14T00:04:34;6.53;;;4.10;;
39772;SDS011;25451;51.960;6.250;2022-08-14T00:07:02;7.68;;;4.07;;
39772;SDS011;25451;51.960;6.250;2022-08-14T00:09:28;6.07;;;4.00;;
39772;SDS011;25451;51.960;6.250;2022-08-14T00:11:54;5.90;;;4.30;;
39772;SDS011;25451;51.960;6.250;2022-08-14T00:14:20;6.75;;;4.20;;
39772;SDS011;25451;51.960;6.250;2022-08-14T00:16:46;5.18;;;3.80;;
39772;SDS011;25451;51.960;6.250;2022-08-14T00:19:12;6.87;;;4.20;;
39772;SDS011;25451;51.960;6.250;2022-08-14T00:21:37;6.20;;;3.97;;
39772;SDS011;25451;51.960;6.250;2022-08-14T00:24:03;8.70;;;4.73;;
39772;SDS011;25451;51.960;6.250;2022-08-14T00:26:29;6.95;;;4.43;;
39772;SDS011;25451;51.960;6.250;2022-08-14T00:28:54;6.43;;;4.50;;
39772;SDS011;25451;51.960;6.250;2022-08-14T00:31:20;7.00;;;4.43;;
39772;SDS011;25451;51.960;6.250;2022-08-14T00:33:46;7.57;;;4.30;;
39772;SDS011;25451;51.960;6.250;2022-08-14T00:36:12;6.53;;;4.40;;
39772;SDS011;25451;51.960;6.250;2022-08-14T00:38:37;11.57;;;4.53;;
39772;SDS011;25451;51.960;6.250;2022-08-14T00:41:03;7.70;;;4.40;;
39772;SDS011;25451;51.960;6.250;2022-08-14T00:43:31;10.98;;;4.95;;
39772;SDS011;25451;51.960;6.250;2022-08-14T00:46:00;6.78;;;4.32;;
39772;SDS011;25451;51.960;6.250;2022-08-14T00:48:27;5.47;;;3.90;;
39772;SDS011;25451;51.960;6.250;2022-08-14T00:50:52;6.90;;;4.57;;
39772;SDS011;25451;51.960;6.250;2022-08-14T00:53:18;6.40;;;4.40;;
39772;SDS011;25451;51.960;6.250;2022-08-14T00:55:44;5.97;;;3.83;;
39772;SDS011;25451;51.960;6.250;2022-08-14T00:58:11;5.72;;;4.35;;
39772;SDS011;25451;51.960;6.250;2022-08-14T01:00:54;6.88;;;4.28;;
39772;SDS011;25451;51.960;6.250;2022-08-14T01:03:20;6.70;;;4.15;;
39772;SDS011;25451;51.960;6.250;2022-08-14T01:05:47;5.70;;;4.00;;
39772;SDS011;25451;51.960;6.250;2022-08-14T01:08:16;6.47;;;4.28;;
39772;SDS011;25451;51.960;6.250;2022-08-14T01:10:54;6.37;;;4.40;;
39772;SDS011;25451;51.960;6.250;2022-08-14T01:13:31;7.28;;;4.07;;
39772;SDS011;25451;51.960;6.250;2022-08-14T01:15:59;6.40;;;4.15;;
39772;SDS011;25451;51.960;6.250;2022-08-14T01:18:28;8.30;;;4.22;;
39772;SDS011;25451;51.960;6.250;2022-08-14T01:21:13;6.30;;;4.35;;
39772;SDS011;25451;51.960;6.250;2022-08-14T01:23:45;6.83;;;4.20;;
39772;SDS011;25451;51.960;6.250;2022-08-14T01:26:12;7.25;;;4.30;;
39772;SDS011;25451;51.960;6.250;2022-08-14T01:28:40;6.47;;;3.90;;
39772;SDS011;25451;51.960;6.250;2022-08-14T01:31:08;7.20;;;4.60;;
39772;SDS011;25451;51.960;6.250;2022-08-14T01:33:34;8.45;;;4.75;;
39772;SDS011;25451;51.960;6.250;2022-08-14T01:36:04;6.67;;;4.60;;
39772;SDS011;25451;51.960;6.250;2022-08-14T01:38:31;8.93;;;4.60;;
39772;SDS011;25451;51.960;6.250;2022-08-14T01:41:06;7.53;;;4.40;;
39772;SDS011;25451;51.960;6.250;2022-08-14T01:43:41;8.80;;;4.40;;
39772;SDS011;25451;51.960;6.250;2022-08-14T01:46:18;8.25;;;4.72;;
39772;SDS011;25451;51.960;6.250;2022-08-14T01:48:45;7.20;;;4.50;;
39772;SDS011;25451;51.960;6.250;2022-08-14T01:51:13;6.68;;;4.72;;
39772;SDS011;25451;51.960;6.250;2022-08-14T01:53:42;6.85;;;4.57;;
39772;SDS011;25451;51.960;6.250;2022-08-14T01:56:15;8.23;;;4.35;;
39772;SDS011;25451;51.960;6.250;2022-08-14T01:58:48;7.80;;;4.57;;
39772;SDS011;25451;51.960;6.250;2022-08-14T02:01:15;8.47;;;4.67;;
39772;SDS011;25451;51.960;6.250;2022-08-14T02:03:42;7.45;;;4.82;;
39772;SDS011;25451;51.960;6.250;2022-08-14T02:06:07;6.37;;;4.57;;
39772;SDS011;25451;51.960;6.250;2022-08-14T02:08:35;6.70;;;4.40;;
39772;SDS011;25451;51.960;6.250;2022-08-14T02:11:02;7.22;;;4.75;;
39772;SDS011;25451;51.960;6.250;2022-08-14T02:13:46;5.95;;;4.45;;
39772;SDS011;25451;51.960;6.250;2022-08-14T02:16:33;6.75;;;4.30;;
39772;SDS011;25451;51.960;6.250;2022-08-14T02:19:04;6.80;;;4.50;;
39772;SDS011;25451;51.960;6.250;2022-08-14T02:21:31;6.55;;;4.60;;
39772;SDS011;25451;51.960;6.250;2022-08-14T02:23:58;7.35;;;4.90;;
39772;SDS011;25451;51.960;6.250;2022-08-14T02:26:26;7.88;;;4.80;;
39772;SDS011;25451;51.960;6.250;2022-08-14T02:28:55;8.60;;;4.65;;
39772;SDS011;25451;51.960;6.250;2022-08-14T02:31:26;6.87;;;4.80;;
39772;SDS011;25451;51.960;6.250;2022-08-14T02:34:03;7.93;;;5.20;;
39772;SDS011;25451;51.960;6.250;2022-08-14T02:36:35;7.20;;;5.22;;
39772;SDS011;25451;51.960;6.250;2022-08-14T02:39:03;7.07;;;4.82;;
39772;SDS011;25451;51.960;6.250;2022-08-14T02:41:30;8.35;;;5.00;;
39772;SDS011;25451;51.960;6.250;2022-08-14T02:43:56;7.27;;;5.37;;
39772;SDS011;25451;51.960;6.250;2022-08-14T02:46:22;7.00;;;4.78;;
39772;SDS011;25451;51.960;6.250;2022-08-14T02:48:47;8.97;;;5.20;;
39772;SDS011;25451;51.960;6.250;2022-08-14T02:51:13;9.50;;;5.50;;
39772;SDS011;25451;51.960;6.250;2022-08-14T02:53:40;7.55;;;4.25;;
39772;SDS011;25451;51.960;6.250;2022-08-14T02:56:10;6.05;;;4.03;;
39772;SDS011;25451;51.960;6.250;2022-08-14T02:58:39;6.40;;;4.80;;
39772;SDS011;25451;51.960;6.250;2022-08-14T03:01:11;6.73;;;4.67;;
39772;SDS011;25451;51.960;6.250;2022-08-14T03:03:39;7.30;;;4.60;;
39772;SDS011;25451;51.960;6.250;2022-08-14T03:06:06;6.22;;;4.38;;
39772;SDS011;25451;51.960;6.250;2022-08-14T03:08:32;6.93;;;4.75;;
39772;SDS011;25451;51.960;6.250;2022-08-14T03:10:59;6.67;;;5.00;;
39772;SDS011;25451;51.960;6.250;2022-08-14T03:13:25;8.07;;;4.80;;
39772;SDS011;25451;51.960;6.250;2022-08-14T03:15:51;9.20;;;5.03;;
39772;SDS011;25451;51.960;6.250;2022-08-14T03:18:18;7.18;;;4.90;;
39772;SDS011;25451;51.960;6.250;2022-08-14T03:20:47;7.55;;;5.60;;
39772;SDS011;25451;51.960;6.250;2022-08-14T03:23:13;7.13;;;4.73;;
39772;SDS011;25451;51.960;6.250;2022-08-14T03:25:38;6.67;;;5.10;;
39772;SDS011;25451;51.960;6.250;2022-08-14T03:28:04;6.50;;;4.40;;
39772;SDS011;25451;51.960;6.250;2022-08-14T03:30:31;7.63;;;4.70;;
39772;SDS011;25451;51.960;6.250;2022-08-14T03:32:57;6.00;;;4.70;;
39772;SDS011;25451;51.960;6.250;2022-08-14T03:35:23;7.25;;;4.80;;
39772;SDS011;25451;51.960;6.250;2022-08-14T03:37:49;7.97;;;5.05;;
39772;SDS011;25451;51.960;6.250;2022-08-14T03:40:16;6.95;;;4.70;;
39772;SDS011;25451;51.960;6.250;2022-08-14T03:42:46;7.60;;;4.57;;
39772;SDS011;25451;51.960;6.250;2022-08-14T03:45:12;10.05;;;5.30;;
39772;SDS011;25451;51.960;6.250;2022-08-14T03:47:38;8.35;;;5.05;;
39772;SDS011;25451;51.960;6.250;2022-08-14T03:50:05;7.72;;;5.03;;
39772;SDS011;25451;51.960;6.250;2022-08-14T03:52:34;7.03;;;4.77;;
39772;SDS011;25451;51.960;6.250;2022-08-14T03:55:00;7.78;;;4.95;;
39772;SDS011;25451;51.960;6.250;2022-08-14T03:57:27;6.18;;;4.57;;
39772;SDS011;25451;51.960;6.250;2022-08-14T03:59:56;7.50;;;4.97;;
39772;SDS011;25451;51.960;6.250;2022-08-14T04:02:22;7.67;;;4.70;;
39772;SDS011;25451;51.960;6.250;2022-08-14T04:04:47;8.77;;;5.30;;
39772;SDS011;25451;51.960;6.250;2022-08-14T04:07:13;7.90;;;5.17;;
39772;SDS011;25451;51.960;6.250;2022-08-14T04:09:38;8.50;;;5.17;;
39772;SDS011;25451;51.960;6.250;2022-08-14T04:12:04;8.80;;;4.67;;
39772;SDS011;25451;51.960;6.250;2022-08-14T04:14:29;7.47;;;5.00;;
39772;SDS011;25451;51.960;6.250;2022-08-14T04:16:55;7.53;;;5.03;;
39772;SDS011;25451;51.960;6.250;2022-08-14T04:19:22;9.37;;;5.30;;
39772;SDS011;25451;51.960;6.250;2022-08-14T04:21:47;7.53;;;4.90;;
39772;SDS011;25451;51.960;6.250;2022-08-14T04:24:14;9.80;;;5.20;;
39772;SDS011;25451;51.960;6.250;2022-08-14T04:26:41;8.65;;;5.10;;
39772;SDS011;25451;51.960;6.250;2022-08-14T04:29:08;7.18;;;4.70;;
39772;SDS011;25451;51.960;6.250;2022-08-14T04:31:37;7.97;;;5.40;;
39772;SDS011;25451;51.960;6.250;2022-08-14T04:34:03;9.00;;;5.32;;
39772;SDS011;25451;51.960;6.250;2022-08-14T04:36:29;8.77;;;5.27;;
39772;SDS011;25451;51.960;6.250;2022-08-14T04:38:56;7.57;;;5.00;;
39772;SDS011;25451;51.960;6.250;2022-08-14T04:41:40;8.30;;;5.28;;
39772;SDS011;25451;51.960;6.250;2022-08-14T04:44:24;6.70;;;5.13;;
39772;SDS011;25451;51.960;6.250;2022-08-14T04:46:49;9.33;;;6.17;;
39772;SDS011;25451;51.960;6.250;2022-08-14T04:49:33;8.57;;;5.32;;
39772;SDS011;25451;51.960;6.250;2022-08-14T04:52:00;10.60;;;6.07;;
39772;SDS011;25451;51.960;6.250;2022-08-14T04:54:28;8.23;;;5.43;;
39772;SDS011;25451;51.960;6.250;2022-08-14T04:56:54;9.40;;;6.15;;
39772;SDS011;25451;51.960;6.250;2022-08-14T04:59:20;10.60;;;6.38;;
39772;SDS011;25451;51.960;6.250;2022-08-14T05:01:46;10.70;;;6.17;;
39772;SDS011;25451;51.960;6.250;2022-08-14T05:04:11;10.65;;;6.57;;
39772;SDS011;25451;51.960;6.250;2022-08-14T05:06:37;9.70;;;6.43;;
39772;SDS011;25451;51.960;6.250;2022-08-14T05:09:03;11.07;;;6.75;;
39772;SDS011;25451;51.960;6.250;2022-08-14T05:11:29;11.20;;;6.80;;
39772;SDS011;25451;51.960;6.250;2022-08-14T05:13:57;10.75;;;6.93;;
39772;SDS011;25451;51.960;6.250;2022-08-14T05:16:25;9.60;;;5.95;;
39772;SDS011;25451;51.960;6.250;2022-08-14T05:18:53;9.18;;;5.88;;
39772;SDS011;25451;51.960;6.250;2022-08-14T05:21:19;9.73;;;6.60;;
39772;SDS011;25451;51.960;6.250;2022-08-14T05:23:45;9.70;;;6.60;;
39772;SDS011;25451;51.960;6.250;2022-08-14T05:26:10;10.03;;;5.97;;
39772;SDS011;25451;51.960;6.250;2022-08-14T05:28:40;10.18;;;6.85;;
39772;SDS011;25451;51.960;6.250;2022-08-14T05:31:10;9.57;;;6.70;;
39772;SDS011;25451;51.960;6.250;2022-08-14T05:33:38;13.38;;;7.00;;
39772;SDS011;25451;51.960;6.250;2022-08-14T05:36:05;10.87;;;6.70;;
39772;SDS011;25451;51.960;6.250;2022-08-14T05:38:33;10.13;;;6.88;;
39772;SDS011;25451;51.960;6.250;2022-08-14T05:41:00;10.48;;;6.35;;
39772;SDS011;25451;51.960;6.250;2022-08-14T05:43:37;9.23;;;6.10;;
39772;SDS011;25451;51.960;6.250;2022-08-14T05:46:06;10.65;;;7.13;;
39772;SDS011;25451;51.960;6.250;2022-08-14T05:48:34;11.03;;;6.30;;
39772;SDS011;25451;51.960;6.250;2022-08-14T05:50:59;10.50;;;6.07;;
39772;SDS011;25451;51.960;6.250;2022-08-14T05:53:25;9.70;;;6.03;;
39772;SDS011;25451;51.960;6.250;2022-08-14T05:55:52;9.50;;;6.20;;
39772;SDS011;25451;51.960;6.250;2022-08-14T05:58:19;9.48;;;6.20;;
39772;SDS011;25451;51.960;6.250;2022-08-14T06:00:46;9.85;;;6.35;;
39772;SDS011;25451;51.960;6.250;2022-08-14T06:03:12;8.25;;;5.72;;
39772;SDS011;25451;51.960;6.250;2022-08-14T06:05:40;9.65;;;6.10;;
39772;SDS011;25451;51.960;6.250;2022-08-14T06:08:18;8.73;;;6.20;;
39772;SDS011;25451;51.960;6.250;2022-08-14T06:10:44;14.55;;;6.88;;
39772;SDS011;25451;51.960;6.250;2022-08-14T06:13:10;9.60;;;5.93;;
39772;SDS011;25451;51.960;6.250;2022-08-14T06:15:35;9.43;;;6.20;;
39772;SDS011;25451;51.960;6.250;2022-08-14T06:18:01;9.27;;;5.90;;
39772;SDS011;25451;51.960;6.250;2022-08-14T06:20:26;9.03;;;6.30;;
39772;SDS011;25451;51.960;6.250;2022-08-14T06:22:54;9.82;;;6.40;;
39772;SDS011;25451;51.960;6.250;2022-08-14T06:25:19;7.30;;;5.30;;
39772;SDS011;25451;51.960;6.250;2022-08-14T06:27:45;8.93;;;6.03;;
39772;SDS011;25451;51.960;6.250;2022-08-14T06:30:20;11.02;;;6.13;;
39772;SDS011;25451;51.960;6.250;2022-08-14T06:32:48;8.23;;;5.43;;
39772;SDS011;25451;51.960;6.250;2022-08-14T06:35:14;10.47;;;6.37;;
39772;SDS011;25451;51.960;6.250;2022-08-14T06:37:46;8.60;;;6.28;;
39772;SDS011;25451;51.960;6.250;2022-08-14T06:40:23;9.25;;;6.10;;
39772;SDS011;25451;51.960;6.250;2022-08-14T06:42:58;8.65;;;5.90;;
39772;SDS011;25451;51.960;6.250;2022-08-14T06:45:31;7.88;;;5.75;;
39772;SDS011;25451;51.960;6.250;2022-08-14T06:47:57;7.57;;;5.60;;
39772;SDS011;25451;51.960;6.250;2022-08-14T06:50:25;8.25;;;5.78;;
39772;SDS011;25451;51.960;6.250;2022-08-14T06:52:51;8.95;;;6.03;;
39772;SDS011;25451;51.960;6.250;2022-08-14T06:55:17;8.97;;;5.90;;
39772;SDS011;25451;51.960;6.250;2022-08-14T06:57:43;9.63;;;5.53;;
39772;SDS011;25451;51.960;6.250;2022-08-14T07:00:14;10.45;;;6.25;;
39772;SDS011;25451;51.960;6.250;2022-08-14T07:02:42;9.52;;;6.15;;
39772;SDS011;25451;51.960;6.250;2022-08-14T07:05:26;7.93;;;5.78;;
39772;SDS011;25451;51.960;6.250;2022-08-14T07:08:10;10.10;;;6.30;;
39772;SDS011;25451;51.960;6.250;2022-08-14T07:10:47;8.53;;;6.00;;
39772;SDS011;25451;51.960;6.250;2022-08-14T07:13:16;8.15;;;5.63;;
39772;SDS011;25451;51.960;6.250;2022-08-14T07:15:43;8.10;;;5.55;;
39772;SDS011;25451;51.960;6.250;2022-08-14T07:18:11;10.75;;;5.97;;
39772;SDS011;25451;51.960;6.250;2022-08-14T07:20:37;9.05;;;6.22;;
39772;SDS011;25451;51.960;6.250;2022-08-14T07:23:05;8.03;;;5.93;;
39772;SDS011;25451;51.960;6.250;2022-08-14T07:25:32;12.38;;;5.80;;
39772;SDS011;25451;51.960;6.250;2022-08-14T07:27:58;8.82;;;6.13;;
39772;SDS011;25451;51.960;6.250;2022-08-14T07:30:24;9.25;;;6.18;;
39772;SDS011;25451;51.960;6.250;2022-08-14T07:32:50;10.43;;;6.30;;
39772;SDS011;25451;51.960;6.250;2022-08-14T07:35:15;8.47;;;5.43;;
39772;SDS011;25451;51.960;6.250;2022-08-14T07:37:41;8.70;;;5.50;;
39772;SDS011;25451;51.960;6.250;2022-08-14T07:40:06;8.17;;;5.83;;
39772;SDS011;25451;51.960;6.250;2022-08-14T07:42:32;9.23;;;6.22;;
39772;SDS011;25451;51.960;6.250;2022-08-14T07:44:59;9.50;;;6.63;;
39772;SDS011;25451;51.960;6.250;2022-08-14T07:47:24;8.55;;;5.78;;
39772;SDS011;25451;51.960;6.250;2022-08-14T07:49:53;8.32;;;6.00;;
39772;SDS011;25451;51.960;6.250;2022-08-14T07:52:36;8.55;;;5.70;;
39772;SDS011;25451;51.960;6.250;2022-08-14T07:55:02;8.40;;;5.70;;
39772;SDS011;25451;51.960;6.250;2022-08-14T07:57:29;10.23;;;5.65;;
39772;SDS011;25451;51.960;6.250;2022-08-14T07:59:54;10.60;;;5.93;;
39772;SDS011;25451;51.960;6.250;2022-08-14T08:02:19;8.73;;;5.27;;
39772;SDS011;25451;51.960;6.250;2022-08-14T08:04:46;11.20;;;6.00;;
39772;SDS011;25451;51.960;6.250;2022-08-14T08:07:17;7.25;;;5.70;;
39772;SDS011;25451;51.960;6.250;2022-08-14T08:10:25;9.73;;;5.47;;
39772;SDS011;25451;51.960;6.250;2022-08-14T08:12:58;7.82;;;5.03;;
39772;SDS011;25451;51.960;6.250;2022-08-14T08:15:30;7.70;;;5.20;;
39772;SDS011;25451;51.960;6.250;2022-08-14T08:17:57;7.45;;;5.05;;
39772;SDS011;25451;51.960;6.250;2022-08-14T08:20:24;9.77;;;5.30;;
39772;SDS011;25451;51.960;6.250;2022-08-14T08:22:50;9.38;;;5.10;;
39772;SDS011;25451;51.960;6.250;2022-08-14T08:25:16;9.80;;;5.30;;
39772;SDS011;25451;51.960;6.250;2022-08-14T08:27:52;7.25;;;5.00;;
39772;SDS011;25451;51.960;6.250;2022-08-14T08:30:29;7.30;;;4.87;;
39772;SDS011;25451;51.960;6.250;2022-08-14T08:32:57;8.80;;;5.38;;
39772;SDS011;25451;51.960;6.250;2022-08-14T08:35:25;8.25;;;5.35;;
39772;SDS011;25451;51.960;6.250;2022-08-14T08:38:00;9.05;;;5.72;;
39772;SDS011;25451;51.960;6.250;2022-08-14T08:40:31;8.38;;;5.50;;
39772;SDS011;25451;51.960;6.250;2022-08-14T08:43:02;7.33;;;5.40;;
39772;SDS011;25451;51.960;6.250;2022-08-14T08:45:36;7.60;;;5.60;;
39772;SDS011;25451;51.960;6.250;2022-08-14T08:48:02;7.22;;;5.10;;
39772;SDS011;25451;51.960;6.250;2022-08-14T08:50:30;8.57;;;5.10;;
39772;SDS011;25451;51.960;6.250;2022-08-14T08:53:00;7.55;;;5.10;;
39772;SDS011;25451;51.960;6.250;2022-08-14T08:58:06;8.07;;;5.43;;
39772;SDS011;25451;51.960;6.250;2022-08-14T09:00:34;8.27;;;4.70;;
39772;SDS011;25451;51.960;6.250;2022-08-14T09:03:05;6.82;;;4.97;;
39772;SDS011;25451;51.960;6.250;2022-08-14T09:05:33;8.02;;;5.05;;
39772;SDS011;25451;51.960;6.250;2022-08-14T09:10:45;6.72;;;4.60;;
39772;SDS011;25451;51.960;6.250;2022-08-14T09:13:12;7.38;;;4.88;;
39772;SDS011;25451;51.960;6.250;2022-08-14T09:15:40;8.18;;;4.75;;
39772;SDS011;25451;51.960;6.250;2022-08-14T09:18:09;7.32;;;4.90;;
39772;SDS011;25451;51.960;6.250;2022-08-14T09:20:39;7.77;;;4.47;;
39772;SDS011;25451;51.960;6.250;2022-08-14T09:23:09;9.85;;;4.63;;
39772;SDS011;25451;51.960;6.250;2022-08-14T09:25:36;6.47;;;4.50;;
39772;SDS011;25451;51.960;6.250;2022-08-14T09:28:02;7.22;;;4.57;;
39772;SDS011;25451;51.960;6.250;2022-08-14T09:30:30;8.57;;;5.13;;
39772;SDS011;25451;51.960;6.250;2022-08-14T09:38:21;8.10;;;5.13;;
39772;SDS011;25451;51.960;6.250;2022-08-14T09:43:52;7.95;;;4.80;;
39772;SDS011;25451;51.960;6.250;2022-08-14T09:46:22;10.53;;;4.60;;
39772;SDS011;25451;51.960;6.250;2022-08-14T09:49:01;7.10;;;4.80;;
39772;SDS011;25451;51.960;6.250;2022-08-14T09:51:29;5.97;;;4.75;;
39772;SDS011;25451;51.960;6.250;2022-08-14T09:54:03;6.13;;;4.88;;
39772;SDS011;25451;51.960;6.250;2022-08-14T09:56:48;7.05;;;4.90;;
39772;SDS011;25451;51.960;6.250;2022-08-14T09:59:17;6.17;;;5.00;;
39772;SDS011;25451;51.960;6.250;2022-08-14T10:01:46;6.43;;;4.93;;
39772;SDS011;25451;51.960;6.250;2022-08-14T10:04:31;6.00;;;4.68;;
39772;SDS011;25451;51.960;6.250;2022-08-14T10:06:56;6.82;;;4.80;;
39772;SDS011;25451;51.960;6.250;2022-08-14T10:09:22;5.73;;;4.33;;
39772;SDS011;25451;51.960;6.250;2022-08-14T10:11:55;5.63;;;4.50;;
39772;SDS011;25451;51.960;6.250;2022-08-14T10:14:22;6.60;;;4.80;;
39772;SDS011;25451;51.960;6.250;2022-08-14T10:16:50;5.72;;;4.40;;
39772;SDS011;25451;51.960;6.250;2022-08-14T10:19:19;5.13;;;4.03;;
39772;SDS011;25451;51.960;6.250;2022-08-14T10:24:41;5.95;;;4.20;;
39772;SDS011;25451;51.960;6.250;2022-08-14T10:27:16;5.93;;;4.00;;
39772;SDS011;25451;51.960;6.250;2022-08-14T10:29:46;5.25;;;4.03;;
39772;SDS011;25451;51.960;6.250;2022-08-14T10:32:13;5.65;;;4.50;;
39772;SDS011;25451;51.960;6.250;2022-08-14T10:34:39;5.68;;;3.95;;
39772;SDS011;25451;51.960;6.250;2022-08-14T10:37:09;7.67;;;4.40;;
39772;SDS011;25451;51.960;6.250;2022-08-14T10:39:37;5.32;;;4.40;;
39772;SDS011;25451;51.960;6.250;2022-08-14T10:42:08;6.57;;;3.92;;
39772;SDS011;25451;51.960;6.250;2022-08-14T10:44:45;6.07;;;4.33;;
39772;SDS011;25451;51.960;6.250;2022-08-14T10:47:14;5.93;;;3.95;;
39772;SDS011;25451;51.960;6.250;2022-08-14T10:49:54;5.35;;;4.30;;
39772;SDS011;25451;51.960;6.250;2022-08-14T10:52:22;6.57;;;4.30;;
39772;SDS011;25451;51.960;6.250;2022-08-14T10:55:03;6.55;;;3.83;;
39772;SDS011;25451;51.960;6.250;2022-08-14T10:57:58;5.63;;;3.90;;
39772;SDS011;25451;51.960;6.250;2022-08-14T11:00:24;5.57;;;3.85;;
39772;SDS011;25451;51.960;6.250;2022-08-14T11:02:55;5.78;;;4.07;;
39772;SDS011;25451;51.960;6.250;2022-08-14T11:05:25;5.53;;;4.20;;
39772;SDS011;25451;51.960;6.250;2022-08-14T11:08:02;6.53;;;4.43;;
39772;SDS011;25451;51.960;6.250;2022-08-14T11:13:28;6.63;;;4.57;;
39772;SDS011;25451;51.960;6.250;2022-08-14T11:15:55;6.13;;;4.13;;
39772;SDS011;25451;51.960;6.250;2022-08-14T11:18:24;5.85;;;4.18;;
39772;SDS011;25451;51.960;6.250;2022-08-14T11:20:51;6.47;;;4.40;;
39772;SDS011;25451;51.960;6.250;2022-08-14T11:23:20;5.65;;;4.50;;
39772;SDS011;25451;51.960;6.250;2022-08-14T11:25:49;5.65;;;4.22;;
39772;SDS011;25451;51.960;6.250;2022-08-14T11:28:15;5.47;;;4.30;;
39772;SDS011;25451;51.960;6.250;2022-08-14T11:30:46;5.07;;;4.25;;
39772;SDS011;25451;51.960;6.250;2022-08-14T11:33:24;5.72;;;3.95;;
39772;SDS011;25451;51.960;6.250;2022-08-14T11:35:54;5.10;;;4.10;;
39772;SDS011;25451;51.960;6.250;2022-08-14T11:38:21;5.00;;;4.10;;
39772;SDS011;25451;51.960;6.250;2022-08-14T11:40:47;6.77;;;4.00;;
39772;SDS011;25451;51.960;6.250;2022-08-14T11:43:13;5.82;;;4.20;;
39772;SDS011;25451;51.960;6.250;2022-08-14T11:45:40;5.07;;;4.10;;
39772;SDS011;25451;51.960;6.250;2022-08-14T11:50:43;5.63;;;4.10;;
39772;SDS011;25451;51.960;6.250;2022-08-14T11:55:45;5.95;;;3.75;;
39772;SDS011;25451;51.960;6.250;2022-08-14T11:58:12;5.07;;;3.80;;
39772;SDS011;25451;51.960;6.250;2022-08-14T12:00:47;6.18;;;3.83;;
39772;SDS011;25451;51.960;6.250;2022-08-14T12:03:13;5.95;;;3.72;;
39772;SDS011;25451;51.960;6.250;2022-08-14T12:05:39;5.20;;;3.60;;
39772;SDS011;25451;51.960;6.250;2022-08-14T12:08:06;5.35;;;3.63;;
39772;SDS011;25451;51.960;6.250;2022-08-14T12:10:33;6.72;;;3.50;;
39772;SDS011;25451;51.960;6.250;2022-08-14T12:13:13;4.83;;;3.43;;
39772;SDS011;25451;51.960;6.250;2022-08-14T12:15:43;5.38;;;3.60;;
39772;SDS011;25451;51.960;6.250;2022-08-14T12:18:11;6.10;;;3.63;;
39772;SDS011;25451;51.960;6.250;2022-08-14T12:20:38;5.13;;;3.88;;
39772;SDS011;25451;51.960;6.250;2022-08-14T12:23:07;5.25;;;4.22;;
39772;SDS011;25451;51.960;6.250;2022-08-14T12:25:46;7.87;;;3.57;;
39772;SDS011;25451;51.960;6.250;2022-08-14T12:28:12;6.18;;;3.80;;
39772;SDS011;25451;51.960;6.250;2022-08-14T12:30:40;5.50;;;3.72;;
39772;SDS011;25451;51.960;6.250;2022-08-14T12:35:54;4.68;;;3.42;;
39772;SDS011;25451;51.960;6.250;2022-08-14T12:41:17;5.43;;;3.50;;
39772;SDS011;25451;51.960;6.250;2022-08-14T12:43:45;4.78;;;3.67;;
39772;SDS011;25451;51.960;6.250;2022-08-14T12:46:19;7.15;;;4.05;;
39772;SDS011;25451;51.960;6.250;2022-08-14T12:48:46;6.00;;;3.92;;
39772;SDS011;25451;51.960;6.250;2022-08-14T12:51:30;4.77;;;3.73;;
39772;SDS011;25451;51.960;6.250;2022-08-14T12:53:56;4.55;;;3.63;;
39772;SDS011;25451;51.960;6.250;2022-08-14T12:56:22;5.40;;;3.57;;
39772;SDS011;25451;51.960;6.250;2022-08-14T12:58:52;7.93;;;3.70;;
39772;SDS011;25451;51.960;6.250;2022-08-14T13:01:20;6.20;;;3.70;;
39772;SDS011;25451;51.960;6.250;2022-08-14T13:04:06;5.50;;;3.78;;
39772;SDS011;25451;51.960;6.250;2022-08-14T13:06:34;5.13;;;3.70;;
39772;SDS011;25451;51.960;6.250;2022-08-14T13:09:01;4.30;;;3.50;;
39772;SDS011;25451;51.960;6.250;2022-08-14T13:11:30;4.20;;;3.47;;
39772;SDS011;25451;51.960;6.250;2022-08-14T13:14:13;4.38;;;3.40;;
39772;SDS011;25451;51.960;6.250;2022-08-14T13:16:42;5.68;;;3.88;;
39772;SDS011;25451;51.960;6.250;2022-08-14T13:19:14;4.63;;;3.65;;
39772;SDS011;25451;51.960;6.250;2022-08-14T13:21:41;6.63;;;3.50;;
39772;SDS011;25451;51.960;6.250;2022-08-14T13:24:07;5.07;;;3.70;;
39772;SDS011;25451;51.960;6.250;2022-08-14T13:26:37;4.90;;;3.75;;
39772;SDS011;25451;51.960;6.250;2022-08-14T13:29:07;4.72;;;3.50;;
39772;SDS011;25451;51.960;6.250;2022-08-14T13:31:33;5.07;;;4.10;;
39772;SDS011;25451;51.960;6.250;2022-08-14T13:34:01;5.18;;;3.60;;
39772;SDS011;25451;51.960;6.250;2022-08-14T13:36:27;5.03;;;3.90;;
39772;SDS011;25451;51.960;6.250;2022-08-14T13:38:52;5.43;;;3.83;;
39772;SDS011;25451;51.960;6.250;2022-08-14T13:41:18;6.87;;;3.90;;
39772;SDS011;25451;51.960;6.250;2022-08-14T13:43:48;8.38;;;4.18;;
39772;SDS011;25451;51.960;6.250;2022-08-14T13:46:15;6.07;;;4.15;;
39772;SDS011;25451;51.960;6.250;2022-08-14T13:48:44;6.05;;;3.50;;
39772;SDS011;25451;51.960;6.250;2022-08-14T13:51:10;4.93;;;4.00;;
39772;SDS011;25451;51.960;6.250;2022-08-14T13:53:40;6.28;;;4.13;;
39772;SDS011;25451;51.960;6.250;2022-08-14T13:56:10;4.72;;;3.60;;
39772;SDS011;25451;51.960;6.250;2022-08-14T13:58:37;6.03;;;3.77;;
39772;SDS011;25451;51.960;6.250;2022-08-14T14:01:02;5.10;;;3.83;;
39772;SDS011;25451;51.960;6.250;2022-08-14T14:03:32;6.78;;;3.63;;
39772;SDS011;25451;51.960;6.250;2022-08-14T14:05:59;4.68;;;3.45;;
39772;SDS011;25451;51.960;6.250;2022-08-14T14:08:26;4.73;;;3.07;;
39772;SDS011;25451;51.960;6.250;2022-08-14T14:10:53;4.88;;;3.08;;
39772;SDS011;25451;51.960;6.250;2022-08-14T14:13:20;4.80;;;3.40;;
39772;SDS011;25451;51.960;6.250;2022-08-14T14:15:47;4.22;;;3.38;;
39772;SDS011;25451;51.960;6.250;2022-08-14T14:18:13;4.57;;;3.70;;
39772;SDS011;25451;51.960;6.250;2022-08-14T14:20:42;5.50;;;4.07;;
39772;SDS011;25451;51.960;6.250;2022-08-14T14:23:11;4.97;;;3.55;;
39772;SDS011;25451;51.960;6.250;2022-08-14T14:25:41;5.07;;;3.83;;
39772;SDS011;25451;51.960;6.250;2022-08-14T14:28:09;8.10;;;3.95;;
39772;SDS011;25451;51.960;6.250;2022-08-14T14:30:43;5.53;;;4.20;;
39772;SDS011;25451;51.960;6.250;2022-08-14T14:33:10;5.33;;;3.70;;
39772;SDS011;25451;51.960;6.250;2022-08-14T14:35:39;6.28;;;3.83;;
39772;SDS011;25451;51.960;6.250;2022-08-14T14:38:07;5.90;;;3.65;;
39772;SDS011;25451;51.960;6.250;2022-08-14T14:40:36;7.20;;;3.80;;
39772;SDS011;25451;51.960;6.250;2022-08-14T14:43:02;5.97;;;3.67;;
39772;SDS011;25451;51.960;6.250;2022-08-14T14:45:34;5.47;;;3.80;;
39772;SDS011;25451;51.960;6.250;2022-08-14T14:48:01;5.75;;;4.18;;
39772;SDS011;25451;51.960;6.250;2022-08-14T14:50:30;5.05;;;4.00;;
39772;SDS011;25451;51.960;6.250;2022-08-14T14:52:56;4.45;;;3.75;;
39772;SDS011;25451;51.960;6.250;2022-08-14T14:55:22;5.07;;;3.60;;
39772;SDS011;25451;51.960;6.250;2022-08-14T14:57:49;4.88;;;3.83;;
39772;SDS011;25451;51.960;6.250;2022-08-14T15:00:15;4.95;;;3.90;;
39772;SDS011;25451;51.960;6.250;2022-08-14T15:02:44;4.83;;;3.80;;
39772;SDS011;25451;51.960;6.250;2022-08-14T15:05:12;6.45;;;3.53;;
39772;SDS011;25451;51.960;6.250;2022-08-14T15:07:40;5.30;;;3.80;;
39772;SDS011;25451;51.960;6.250;2022-08-14T15:10:07;5.05;;;3.80;;
39772;SDS011;25451;51.960;6.250;2022-08-14T15:12:36;6.60;;;4.20;;
39772;SDS011;25451;51.960;6.250;2022-08-14T15:15:02;6.53;;;3.90;;
39772;SDS011;25451;51.960;6.250;2022-08-14T15:17:28;6.25;;;3.90;;
39772;SDS011;25451;51.960;6.250;2022-08-14T15:19:59;5.38;;;3.78;;
39772;SDS011;25451;51.960;6.250;2022-08-14T15:22:27;6.38;;;3.88;;
39772;SDS011;25451;51.960;6.250;2022-08-14T15:24:53;5.23;;;3.77;;
39772;SDS011;25451;51.960;6.250;2022-08-14T15:27:18;6.40;;;3.73;;